sensor_id;sensor_type;location;lat;lon;timestamp;P1;durP1;ratioP1;P2;durP2;ratioP2
6825;SDS011;3451;52.476;13.316;2022-08-01T00:01:57;3.63;;;2.90;;
6825;SDS011;3451;52.476;13.316;2022-08-01T00:04:23;5.20;;;3.07;;
6825;SDS011;3451;52.476;13.316;2022-08-01T00:06:50;4.67;;;2.93;;
6825;SDS011;3451;52.476;13.316;2022-08-01T00:09:16;4.13;;;2.80;;
6825;SDS011;3451;52.476;13.316;2022-08-01T00:11:49;5.37;;;3.40;;
6825;SDS011;3451;52.476;13.316;2022-08-01T00:14:25;4.00;;;2.60;;
6825;SDS011;3451;52.476;13.316;2022-08-01T00:16:58;3.23;;;2.93;;
6825;SDS011;3451;52.476;13.316;2022-08-01T00:19:32;4.40;;;3.07;;
6825;SDS011;3451;52.476;13.316;2022-08-01T00:21:59;5.30;;;3.40;;
6825;SDS011;3451;52.476;13.316;2022-08-01T00:24:25;3.40;;;3.10;;
6825;SDS011;3451;52.476;13.316;2022-08-01T00:26:52;8.07;;;3.83;;
6825;SDS011;3451;52.476;13.316;2022-08-01T00:29:18;5.57;;;3.50;;
6825;SDS011;3451;52.476;13.316;2022-08-01T00:32:05;3.43;;;3.13;;
6825;SDS011;3451;52.476;13.316;2022-08-01T00:34:32;3.20;;;2.90;;
6825;SDS011;3451;52.476;13.316;2022-08-01T00:36:59;5.53;;;3.23;;
6825;SDS011;3451;52.476;13.316;2022-08-01T00:39:25;3.70;;;3.30;;
6825;SDS011;3451;52.476;13.316;2022-08-01T00:41:52;4.73;;;3.50;;
6825;SDS011;3451;52.476;13.316;2022-08-01T00:44:25;3.20;;;2.90;;
6825;SDS011;3451;52.476;13.316;2022-08-01T00:46:52;4.30;;;3.50;;
6825;SDS011;3451;52.476;13.316;2022-08-01T00:49:18;3.70;;;3.40;;
6825;SDS011;3451;52.476;13.316;2022-08-01T00:51:45;3.90;;;3.27;;
6825;SDS011;3451;52.476;13.316;2022-08-01T00:54:11;5.20;;;2.97;;
6825;SDS011;3451;52.476;13.316;2022-08-01T00:56:42;3.87;;;3.30;;
6825;SDS011;3451;52.476;13.316;2022-08-01T00:59:09;3.47;;;3.10;;
6825;SDS011;3451;52.476;13.316;2022-08-01T01:01:40;4.20;;;3.20;;
6825;SDS011;3451;52.476;13.316;2022-08-01T01:04:15;5.37;;;3.57;;
6825;SDS011;3451;52.476;13.316;2022-08-01T01:14:57;3.63;;;3.30;;
6825;SDS011;3451;52.476;13.316;2022-08-01T01:20:37;4.27;;;3.40;;
6825;SDS011;3451;52.476;13.316;2022-08-01T01:23:10;3.70;;;3.27;;
6825;SDS011;3451;52.476;13.316;2022-08-01T01:25:54;4.33;;;3.33;;
6825;SDS011;3451;52.476;13.316;2022-08-01T01:28:33;4.30;;;3.40;;
6825;SDS011;3451;52.476;13.316;2022-08-01T01:31:07;7.33;;;3.60;;
6825;SDS011;3451;52.476;13.316;2022-08-01T01:33:37;5.03;;;3.47;;
6825;SDS011;3451;52.476;13.316;2022-08-01T01:36:12;3.33;;;3.00;;
6825;SDS011;3451;52.476;13.316;2022-08-01T01:38:41;5.03;;;3.60;;
6825;SDS011;3451;52.476;13.316;2022-08-01T01:41:11;3.73;;;3.33;;
6825;SDS011;3451;52.476;13.316;2022-08-01T01:43:38;3.63;;;3.30;;
6825;SDS011;3451;52.476;13.316;2022-08-01T01:46:06;4.17;;;3.37;;
6825;SDS011;3451;52.476;13.316;2022-08-01T01:48:35;3.83;;;3.43;;
6825;SDS011;3451;52.476;13.316;2022-08-01T01:51:02;3.70;;;3.07;;
6825;SDS011;3451;52.476;13.316;2022-08-01T01:53:30;3.93;;;3.53;;
6825;SDS011;3451;52.476;13.316;2022-08-01T01:55:59;4.20;;;3.80;;
6825;SDS011;3451;52.476;13.316;2022-08-01T01:58:27;4.93;;;3.60;;
6825;SDS011;3451;52.476;13.316;2022-08-01T02:00:56;5.30;;;3.87;;
6825;SDS011;3451;52.476;13.316;2022-08-01T02:03:28;4.83;;;3.23;;
6825;SDS011;3451;52.476;13.316;2022-08-01T02:05:56;4.63;;;3.60;;
6825;SDS011;3451;52.476;13.316;2022-08-01T02:08:23;5.90;;;3.80;;
6825;SDS011;3451;52.476;13.316;2022-08-01T02:10:51;4.00;;;3.33;;
6825;SDS011;3451;52.476;13.316;2022-08-01T02:13:38;5.27;;;3.90;;
6825;SDS011;3451;52.476;13.316;2022-08-01T02:16:07;6.27;;;3.67;;
6825;SDS011;3451;52.476;13.316;2022-08-01T02:18:37;3.83;;;3.37;;
6825;SDS011;3451;52.476;13.316;2022-08-01T02:21:05;4.60;;;4.20;;
6825;SDS011;3451;52.476;13.316;2022-08-01T02:23:36;6.00;;;4.00;;
6825;SDS011;3451;52.476;13.316;2022-08-01T02:26:07;5.90;;;4.50;;
6825;SDS011;3451;52.476;13.316;2022-08-01T02:28:38;4.60;;;3.77;;
6825;SDS011;3451;52.476;13.316;2022-08-01T02:31:12;4.63;;;3.83;;
6825;SDS011;3451;52.476;13.316;2022-08-01T02:33:43;4.33;;;3.87;;
6825;SDS011;3451;52.476;13.316;2022-08-01T02:36:12;5.43;;;4.03;;
6825;SDS011;3451;52.476;13.316;2022-08-01T02:38:58;5.97;;;4.57;;
6825;SDS011;3451;52.476;13.316;2022-08-01T02:41:27;4.33;;;3.93;;
6825;SDS011;3451;52.476;13.316;2022-08-01T02:43:57;4.30;;;3.90;;
6825;SDS011;3451;52.476;13.316;2022-08-01T02:46:31;6.20;;;4.27;;
6825;SDS011;3451;52.476;13.316;2022-08-01T02:49:02;4.97;;;4.30;;
6825;SDS011;3451;52.476;13.316;2022-08-01T02:51:31;7.77;;;4.73;;
6825;SDS011;3451;52.476;13.316;2022-08-01T02:54:00;5.00;;;4.00;;
6825;SDS011;3451;52.476;13.316;2022-08-01T02:56:29;5.27;;;4.03;;
6825;SDS011;3451;52.476;13.316;2022-08-01T02:59:13;5.67;;;4.10;;
6825;SDS011;3451;52.476;13.316;2022-08-01T03:01:47;4.60;;;4.20;;
6825;SDS011;3451;52.476;13.316;2022-08-01T03:04:16;4.70;;;4.20;;
6825;SDS011;3451;52.476;13.316;2022-08-01T03:06:45;4.20;;;3.80;;
6825;SDS011;3451;52.476;13.316;2022-08-01T03:09:13;6.13;;;4.37;;
6825;SDS011;3451;52.476;13.316;2022-08-01T03:11:41;5.27;;;4.50;;
6825;SDS011;3451;52.476;13.316;2022-08-01T03:14:10;7.87;;;4.43;;
6825;SDS011;3451;52.476;13.316;2022-08-01T03:16:38;5.23;;;4.30;;
6825;SDS011;3451;52.476;13.316;2022-08-01T03:19:08;4.77;;;4.37;;
6825;SDS011;3451;52.476;13.316;2022-08-01T03:21:37;4.30;;;3.90;;
6825;SDS011;3451;52.476;13.316;2022-08-01T03:24:05;5.00;;;4.50;;
6825;SDS011;3451;52.476;13.316;2022-08-01T03:26:34;4.97;;;4.20;;
6825;SDS011;3451;52.476;13.316;2022-08-01T03:29:04;5.70;;;4.40;;
6825;SDS011;3451;52.476;13.316;2022-08-01T03:31:35;5.20;;;4.20;;
6825;SDS011;3451;52.476;13.316;2022-08-01T03:34:04;4.30;;;3.90;;
6825;SDS011;3451;52.476;13.316;2022-08-01T03:36:32;4.57;;;4.00;;
6825;SDS011;3451;52.476;13.316;2022-08-01T03:39:02;5.40;;;4.70;;
6825;SDS011;3451;52.476;13.316;2022-08-01T03:41:32;5.10;;;4.33;;
6825;SDS011;3451;52.476;13.316;2022-08-01T03:44:04;4.70;;;4.23;;
6825;SDS011;3451;52.476;13.316;2022-08-01T03:49:11;5.60;;;3.97;;
6825;SDS011;3451;52.476;13.316;2022-08-01T03:51:44;4.60;;;3.83;;
6825;SDS011;3451;52.476;13.316;2022-08-01T03:54:14;6.80;;;3.80;;
6825;SDS011;3451;52.476;13.316;2022-08-01T03:56:42;5.03;;;3.73;;
6825;SDS011;3451;52.476;13.316;2022-08-01T03:59:10;5.23;;;4.20;;
6825;SDS011;3451;52.476;13.316;2022-08-01T04:01:37;4.60;;;3.73;;
6825;SDS011;3451;52.476;13.316;2022-08-01T04:04:05;6.60;;;3.60;;
6825;SDS011;3451;52.476;13.316;2022-08-01T04:06:31;4.07;;;3.30;;
6825;SDS011;3451;52.476;13.316;2022-08-01T04:08:58;4.57;;;3.70;;
6825;SDS011;3451;52.476;13.316;2022-08-01T04:11:25;4.17;;;3.77;;
6825;SDS011;3451;52.476;13.316;2022-08-01T04:13:53;4.30;;;3.30;;
6825;SDS011;3451;52.476;13.316;2022-08-01T04:16:20;8.73;;;4.60;;
6825;SDS011;3451;52.476;13.316;2022-08-01T04:18:47;5.70;;;4.33;;
6825;SDS011;3451;52.476;13.316;2022-08-01T04:21:14;7.93;;;4.43;;
6825;SDS011;3451;52.476;13.316;2022-08-01T04:23:44;7.10;;;5.30;;
6825;SDS011;3451;52.476;13.316;2022-08-01T04:26:16;8.07;;;7.03;;
6825;SDS011;3451;52.476;13.316;2022-08-01T04:28:44;11.03;;;7.20;;
6825;SDS011;3451;52.476;13.316;2022-08-01T04:31:12;8.23;;;5.93;;
6825;SDS011;3451;52.476;13.316;2022-08-01T04:33:42;9.90;;;7.80;;
6825;SDS011;3451;52.476;13.316;2022-08-01T04:36:13;13.30;;;8.47;;
6825;SDS011;3451;52.476;13.316;2022-08-01T04:38:42;8.73;;;6.00;;
6825;SDS011;3451;52.476;13.316;2022-08-01T04:41:12;7.00;;;5.20;;
6825;SDS011;3451;52.476;13.316;2022-08-01T04:43:39;5.80;;;4.80;;
6825;SDS011;3451;52.476;13.316;2022-08-01T04:46:09;6.40;;;4.57;;
6825;SDS011;3451;52.476;13.316;2022-08-01T04:48:37;7.47;;;5.97;;
6825;SDS011;3451;52.476;13.316;2022-08-01T04:51:10;7.30;;;6.03;;
6825;SDS011;3451;52.476;13.316;2022-08-01T04:53:39;7.40;;;5.60;;
6825;SDS011;3451;52.476;13.316;2022-08-01T04:56:06;6.53;;;5.37;;
6825;SDS011;3451;52.476;13.316;2022-08-01T04:58:33;6.30;;;5.53;;
6825;SDS011;3451;52.476;13.316;2022-08-01T05:01:00;7.40;;;5.30;;
6825;SDS011;3451;52.476;13.316;2022-08-01T05:03:26;6.40;;;5.70;;
6825;SDS011;3451;52.476;13.316;2022-08-01T05:05:53;5.77;;;5.17;;
6825;SDS011;3451;52.476;13.316;2022-08-01T05:08:19;8.13;;;5.70;;
6825;SDS011;3451;52.476;13.316;2022-08-01T05:10:46;7.67;;;5.67;;
6825;SDS011;3451;52.476;13.316;2022-08-01T05:13:12;5.83;;;5.20;;
6825;SDS011;3451;52.476;13.316;2022-08-01T05:15:39;8.60;;;5.60;;
6825;SDS011;3451;52.476;13.316;2022-08-01T05:18:05;5.43;;;4.83;;
6825;SDS011;3451;52.476;13.316;2022-08-01T05:20:34;9.70;;;6.37;;
6825;SDS011;3451;52.476;13.316;2022-08-01T05:23:01;15.37;;;12.03;;
6825;SDS011;3451;52.476;13.316;2022-08-01T05:25:28;6.80;;;5.90;;
6825;SDS011;3451;52.476;13.316;2022-08-01T05:28:14;9.10;;;5.53;;
6825;SDS011;3451;52.476;13.316;2022-08-01T05:30:44;5.70;;;5.10;;
6825;SDS011;3451;52.476;13.316;2022-08-01T05:33:11;5.57;;;4.83;;
6825;SDS011;3451;52.476;13.316;2022-08-01T05:35:37;6.20;;;5.00;;
6825;SDS011;3451;52.476;13.316;2022-08-01T05:38:14;5.40;;;4.70;;
6825;SDS011;3451;52.476;13.316;2022-08-01T05:40:40;4.90;;;4.40;;
6825;SDS011;3451;52.476;13.316;2022-08-01T05:43:07;5.80;;;4.57;;
6825;SDS011;3451;52.476;13.316;2022-08-01T05:45:33;4.47;;;3.83;;
6825;SDS011;3451;52.476;13.316;2022-08-01T05:48:00;6.47;;;4.23;;
6825;SDS011;3451;52.476;13.316;2022-08-01T05:50:26;4.80;;;4.17;;
6825;SDS011;3451;52.476;13.316;2022-08-01T05:52:52;5.43;;;4.60;;
6825;SDS011;3451;52.476;13.316;2022-08-01T05:55:19;5.90;;;4.93;;
6825;SDS011;3451;52.476;13.316;2022-08-01T05:57:45;5.20;;;4.70;;
6825;SDS011;3451;52.476;13.316;2022-08-01T06:00:12;4.70;;;4.30;;
6825;SDS011;3451;52.476;13.316;2022-08-01T06:02:41;5.70;;;4.57;;
6825;SDS011;3451;52.476;13.316;2022-08-01T06:05:09;6.03;;;5.10;;
6825;SDS011;3451;52.476;13.316;2022-08-01T06:07:38;6.47;;;4.20;;
6825;SDS011;3451;52.476;13.316;2022-08-01T06:10:06;5.67;;;4.70;;
6825;SDS011;3451;52.476;13.316;2022-08-01T06:12:33;6.37;;;4.50;;
6825;SDS011;3451;52.476;13.316;2022-08-01T06:15:01;6.17;;;4.30;;
6825;SDS011;3451;52.476;13.316;2022-08-01T06:17:28;4.83;;;4.30;;
6825;SDS011;3451;52.476;13.316;2022-08-01T06:19:54;7.27;;;4.80;;
6825;SDS011;3451;52.476;13.316;2022-08-01T06:22:21;7.33;;;4.90;;
6825;SDS011;3451;52.476;13.316;2022-08-01T06:24:48;5.67;;;4.67;;
6825;SDS011;3451;52.476;13.316;2022-08-01T06:27:14;4.93;;;4.40;;
6825;SDS011;3451;52.476;13.316;2022-08-01T06:29:47;7.23;;;4.30;;
6825;SDS011;3451;52.476;13.316;2022-08-01T06:32:19;5.90;;;4.47;;
6825;SDS011;3451;52.476;13.316;2022-08-01T06:34:52;4.83;;;4.17;;
6825;SDS011;3451;52.476;13.316;2022-08-01T06:37:19;5.63;;;4.27;;
6825;SDS011;3451;52.476;13.316;2022-08-01T06:39:45;4.70;;;4.00;;
6825;SDS011;3451;52.476;13.316;2022-08-01T06:42:12;4.20;;;3.80;;
6825;SDS011;3451;52.476;13.316;2022-08-01T06:44:41;6.63;;;4.03;;
6825;SDS011;3451;52.476;13.316;2022-08-01T06:47:07;7.47;;;4.20;;
6825;SDS011;3451;52.476;13.316;2022-08-01T06:49:33;4.43;;;3.60;;
6825;SDS011;3451;52.476;13.316;2022-08-01T06:52:00;5.70;;;3.77;;
6825;SDS011;3451;52.476;13.316;2022-08-01T06:54:27;3.40;;;3.10;;
6825;SDS011;3451;52.476;13.316;2022-08-01T06:56:54;3.87;;;3.40;;
6825;SDS011;3451;52.476;13.316;2022-08-01T06:59:20;7.20;;;3.53;;
6825;SDS011;3451;52.476;13.316;2022-08-01T07:01:47;5.63;;;4.03;;
6825;SDS011;3451;52.476;13.316;2022-08-01T07:04:13;5.77;;;3.20;;
6825;SDS011;3451;52.476;13.316;2022-08-01T07:06:40;3.90;;;3.10;;
6825;SDS011;3451;52.476;13.316;2022-08-01T07:09:06;3.43;;;3.13;;
6825;SDS011;3451;52.476;13.316;2022-08-01T07:11:39;2.50;;;2.30;;
6825;SDS011;3451;52.476;13.316;2022-08-01T07:14:05;3.57;;;3.27;;
6825;SDS011;3451;52.476;13.316;2022-08-01T07:16:32;3.13;;;2.73;;
6825;SDS011;3451;52.476;13.316;2022-08-01T07:18:58;3.27;;;2.60;;
6825;SDS011;3451;52.476;13.316;2022-08-01T07:21:25;3.90;;;2.70;;
6825;SDS011;3451;52.476;13.316;2022-08-01T07:24:06;2.47;;;2.10;;
6825;SDS011;3451;52.476;13.316;2022-08-01T07:26:40;2.77;;;2.50;;
6825;SDS011;3451;52.476;13.316;2022-08-01T07:29:20;2.50;;;2.27;;
6825;SDS011;3451;52.476;13.316;2022-08-01T07:31:47;2.67;;;2.43;;
6825;SDS011;3451;52.476;13.316;2022-08-01T07:34:13;2.90;;;2.60;;
6825;SDS011;3451;52.476;13.316;2022-08-01T07:36:40;4.20;;;2.20;;
6825;SDS011;3451;52.476;13.316;2022-08-01T07:39:06;3.07;;;2.50;;
6825;SDS011;3451;52.476;13.316;2022-08-01T07:41:33;3.07;;;2.40;;
6825;SDS011;3451;52.476;13.316;2022-08-01T07:44:20;2.53;;;2.33;;
6825;SDS011;3451;52.476;13.316;2022-08-01T07:46:47;3.70;;;2.50;;
6825;SDS011;3451;52.476;13.316;2022-08-01T07:49:13;2.87;;;2.50;;
6825;SDS011;3451;52.476;13.316;2022-08-01T07:51:40;2.80;;;2.50;;
6825;SDS011;3451;52.476;13.316;2022-08-01T07:54:06;3.33;;;2.97;;
6825;SDS011;3451;52.476;13.316;2022-08-01T07:56:33;3.23;;;2.77;;
6825;SDS011;3451;52.476;13.316;2022-08-01T07:59:00;4.03;;;3.23;;
6825;SDS011;3451;52.476;13.316;2022-08-01T08:01:26;5.03;;;2.77;;
6825;SDS011;3451;52.476;13.316;2022-08-01T08:03:53;4.43;;;3.73;;
6825;SDS011;3451;52.476;13.316;2022-08-01T08:06:22;4.63;;;4.00;;
6825;SDS011;3451;52.476;13.316;2022-08-01T08:08:48;4.70;;;4.20;;
6825;SDS011;3451;52.476;13.316;2022-08-01T08:11:14;5.80;;;4.17;;
6825;SDS011;3451;52.476;13.316;2022-08-01T08:13:41;5.27;;;4.13;;
6825;SDS011;3451;52.476;13.316;2022-08-01T08:16:09;5.07;;;4.00;;
6825;SDS011;3451;52.476;13.316;2022-08-01T08:18:35;5.57;;;4.20;;
6825;SDS011;3451;52.476;13.316;2022-08-01T08:21:02;4.90;;;3.43;;
6825;SDS011;3451;52.476;13.316;2022-08-01T08:23:32;5.33;;;3.70;;
6825;SDS011;3451;52.476;13.316;2022-08-01T08:26:17;4.60;;;3.97;;
6825;SDS011;3451;52.476;13.316;2022-08-01T08:28:44;5.77;;;4.07;;
6825;SDS011;3451;52.476;13.316;2022-08-01T08:31:10;3.77;;;3.40;;
6825;SDS011;3451;52.476;13.316;2022-08-01T08:33:57;3.43;;;3.13;;
6825;SDS011;3451;52.476;13.316;2022-08-01T08:36:24;3.47;;;3.17;;
6825;SDS011;3451;52.476;13.316;2022-08-01T08:38:56;3.63;;;2.73;;
6825;SDS011;3451;52.476;13.316;2022-08-01T08:41:23;3.10;;;2.73;;
6825;SDS011;3451;52.476;13.316;2022-08-01T08:43:50;2.93;;;2.30;;
6825;SDS011;3451;52.476;13.316;2022-08-01T08:46:16;2.73;;;1.90;;
6825;SDS011;3451;52.476;13.316;2022-08-01T08:48:53;1.87;;;1.67;;
6825;SDS011;3451;52.476;13.316;2022-08-01T08:51:24;1.77;;;1.60;;
6825;SDS011;3451;52.476;13.316;2022-08-01T08:53:53;2.23;;;1.80;;
6825;SDS011;3451;52.476;13.316;2022-08-01T08:56:22;1.40;;;1.30;;
6825;SDS011;3451;52.476;13.316;2022-08-01T08:58:53;2.23;;;1.57;;
6825;SDS011;3451;52.476;13.316;2022-08-01T09:01:19;2.60;;;1.60;;
6825;SDS011;3451;52.476;13.316;2022-08-01T09:03:48;1.27;;;1.17;;
6825;SDS011;3451;52.476;13.316;2022-08-01T09:06:14;1.87;;;1.30;;
6825;SDS011;3451;52.476;13.316;2022-08-01T09:08:41;1.30;;;1.00;;
6825;SDS011;3451;52.476;13.316;2022-08-01T09:11:07;1.17;;;1.00;;
6825;SDS011;3451;52.476;13.316;2022-08-01T09:13:34;1.13;;;1.03;;
6825;SDS011;3451;52.476;13.316;2022-08-01T09:16:00;1.50;;;1.40;;
6825;SDS011;3451;52.476;13.316;2022-08-01T09:18:37;2.03;;;1.50;;
6825;SDS011;3451;52.476;13.316;2022-08-01T09:26:20;2.10;;;1.53;;
6825;SDS011;3451;52.476;13.316;2022-08-01T09:28:53;2.40;;;1.50;;
6825;SDS011;3451;52.476;13.316;2022-08-01T09:31:20;1.80;;;1.70;;
6825;SDS011;3451;52.476;13.316;2022-08-01T09:33:56;4.43;;;1.87;;
6825;SDS011;3451;52.476;13.316;2022-08-01T09:36:26;4.33;;;1.70;;
6825;SDS011;3451;52.476;13.316;2022-08-01T09:39:12;1.87;;;1.50;;
6825;SDS011;3451;52.476;13.316;2022-08-01T09:41:40;2.13;;;1.70;;
6825;SDS011;3451;52.476;13.316;2022-08-01T09:44:07;2.00;;;1.70;;
6825;SDS011;3451;52.476;13.316;2022-08-01T09:46:33;3.77;;;1.77;;
6825;SDS011;3451;52.476;13.316;2022-08-01T09:49:04;3.30;;;1.73;;
6825;SDS011;3451;52.476;13.316;2022-08-01T09:51:36;4.27;;;1.57;;
6825;SDS011;3451;52.476;13.316;2022-08-01T09:54:27;2.17;;;1.60;;
6825;SDS011;3451;52.476;13.316;2022-08-01T09:57:11;2.87;;;1.60;;
6825;SDS011;3451;52.476;13.316;2022-08-01T09:59:40;1.97;;;1.30;;
6825;SDS011;3451;52.476;13.316;2022-08-01T10:02:37;5.23;;;1.90;;
6825;SDS011;3451;52.476;13.316;2022-08-01T10:05:10;3.47;;;1.80;;
6825;SDS011;3451;52.476;13.316;2022-08-01T10:07:56;12.17;;;2.50;;
6825;SDS011;3451;52.476;13.316;2022-08-01T10:10:24;4.87;;;2.00;;
6825;SDS011;3451;52.476;13.316;2022-08-01T10:12:55;3.07;;;1.30;;
6825;SDS011;3451;52.476;13.316;2022-08-01T10:15:23;1.40;;;1.30;;
6825;SDS011;3451;52.476;13.316;2022-08-01T10:18:03;1.90;;;1.40;;
6825;SDS011;3451;52.476;13.316;2022-08-01T10:20:42;1.50;;;1.33;;
6825;SDS011;3451;52.476;13.316;2022-08-01T10:23:09;2.43;;;1.47;;
6825;SDS011;3451;52.476;13.316;2022-08-01T10:25:37;2.93;;;2.13;;
6825;SDS011;3451;52.476;13.316;2022-08-01T10:28:18;2.10;;;1.60;;
6825;SDS011;3451;52.476;13.316;2022-08-01T10:30:49;3.53;;;1.97;;
6825;SDS011;3451;52.476;13.316;2022-08-01T10:33:18;4.83;;;1.50;;
6825;SDS011;3451;52.476;13.316;2022-08-01T10:36:08;1.57;;;1.20;;
6825;SDS011;3451;52.476;13.316;2022-08-01T10:38:35;3.57;;;1.60;;
6825;SDS011;3451;52.476;13.316;2022-08-01T10:41:03;8.77;;;2.00;;
6825;SDS011;3451;52.476;13.316;2022-08-01T10:43:34;2.87;;;1.90;;
6825;SDS011;3451;52.476;13.316;2022-08-01T10:46:01;3.90;;;1.87;;
6825;SDS011;3451;52.476;13.316;2022-08-01T10:48:49;3.83;;;1.80;;
6825;SDS011;3451;52.476;13.316;2022-08-01T10:51:21;1.80;;;1.70;;
6825;SDS011;3451;52.476;13.316;2022-08-01T10:54:10;2.27;;;1.57;;
6825;SDS011;3451;52.476;13.316;2022-08-01T10:56:39;3.53;;;1.53;;
6825;SDS011;3451;52.476;13.316;2022-08-01T10:59:09;2.07;;;1.30;;
6825;SDS011;3451;52.476;13.316;2022-08-01T11:01:38;4.83;;;1.30;;
6825;SDS011;3451;52.476;13.316;2022-08-01T11:04:13;1.53;;;1.33;;
6825;SDS011;3451;52.476;13.316;2022-08-01T11:06:52;4.70;;;1.20;;
6825;SDS011;3451;52.476;13.316;2022-08-01T11:09:31;2.47;;;2.20;;
6825;SDS011;3451;52.476;13.316;2022-08-01T11:12:06;2.60;;;1.27;;
6825;SDS011;3451;52.476;13.316;2022-08-01T11:20:09;1.77;;;1.17;;
6825;SDS011;3451;52.476;13.316;2022-08-01T11:28:26;3.57;;;1.80;;
6825;SDS011;3451;52.476;13.316;2022-08-01T11:38:41;2.13;;;1.30;;
6825;SDS011;3451;52.476;13.316;2022-08-01T11:41:22;4.37;;;1.60;;
6825;SDS011;3451;52.476;13.316;2022-08-01T11:46:46;2.37;;;1.37;;
6825;SDS011;3451;52.476;13.316;2022-08-01T11:49:22;1.80;;;1.60;;
6825;SDS011;3451;52.476;13.316;2022-08-01T11:54:26;1.53;;;1.40;;
6825;SDS011;3451;52.476;13.316;2022-08-01T11:57:02;7.30;;;1.40;;
6825;SDS011;3451;52.476;13.316;2022-08-01T11:59:36;2.07;;;1.10;;
6825;SDS011;3451;52.476;13.316;2022-08-01T12:02:16;1.50;;;1.30;;
6825;SDS011;3451;52.476;13.316;2022-08-01T12:05:03;1.37;;;1.27;;
6825;SDS011;3451;52.476;13.316;2022-08-01T12:07:37;4.73;;;1.37;;
6825;SDS011;3451;52.476;13.316;2022-08-01T12:10:08;1.03;;;0.93;;
6825;SDS011;3451;52.476;13.316;2022-08-01T12:12:41;9.30;;;1.27;;
6825;SDS011;3451;52.476;13.316;2022-08-01T12:15:12;4.70;;;1.03;;
6825;SDS011;3451;52.476;13.316;2022-08-01T12:17:43;4.53;;;1.10;;
6825;SDS011;3451;52.476;13.316;2022-08-01T12:20:31;1.87;;;1.00;;
6825;SDS011;3451;52.476;13.316;2022-08-01T12:23:06;1.73;;;1.27;;
6825;SDS011;3451;52.476;13.316;2022-08-01T12:25:35;2.20;;;1.00;;
6825;SDS011;3451;52.476;13.316;2022-08-01T12:28:06;1.90;;;1.10;;
6825;SDS011;3451;52.476;13.316;2022-08-01T12:30:35;1.10;;;1.00;;
6825;SDS011;3451;52.476;13.316;2022-08-01T12:33:03;1.23;;;1.00;;
6825;SDS011;3451;52.476;13.316;2022-08-01T12:35:31;1.00;;;0.90;;
6825;SDS011;3451;52.476;13.316;2022-08-01T12:37:59;2.70;;;1.20;;
6825;SDS011;3451;52.476;13.316;2022-08-01T12:40:53;2.03;;;1.10;;
6825;SDS011;3451;52.476;13.316;2022-08-01T12:43:20;1.23;;;0.90;;
6825;SDS011;3451;52.476;13.316;2022-08-01T12:45:54;1.10;;;0.80;;
6825;SDS011;3451;52.476;13.316;2022-08-01T12:48:23;2.43;;;1.00;;
6825;SDS011;3451;52.476;13.316;2022-08-01T12:50:51;2.30;;;1.20;;
6825;SDS011;3451;52.476;13.316;2022-08-01T12:53:19;1.73;;;0.90;;
6825;SDS011;3451;52.476;13.316;2022-08-01T12:55:54;1.40;;;1.00;;
6825;SDS011;3451;52.476;13.316;2022-08-01T12:58:30;1.10;;;0.90;;
6825;SDS011;3451;52.476;13.316;2022-08-01T13:01:04;1.83;;;0.90;;
6825;SDS011;3451;52.476;13.316;2022-08-01T13:03:32;2.77;;;1.10;;
6825;SDS011;3451;52.476;13.316;2022-08-01T13:05:59;2.43;;;1.70;;
6825;SDS011;3451;52.476;13.316;2022-08-01T13:11:02;2.13;;;1.23;;
6825;SDS011;3451;52.476;13.316;2022-08-01T13:13:40;4.43;;;2.93;;
6825;SDS011;3451;52.476;13.316;2022-08-01T13:16:09;4.90;;;1.90;;
6825;SDS011;3451;52.476;13.316;2022-08-01T13:18:49;3.23;;;1.30;;
6825;SDS011;3451;52.476;13.316;2022-08-01T13:24:05;4.37;;;1.03;;
6825;SDS011;3451;52.476;13.316;2022-08-01T13:26:37;1.77;;;1.10;;
6825;SDS011;3451;52.476;13.316;2022-08-01T13:29:05;1.63;;;1.10;;
6825;SDS011;3451;52.476;13.316;2022-08-01T13:31:34;1.60;;;1.03;;
6825;SDS011;3451;52.476;13.316;2022-08-01T13:34:04;1.67;;;1.20;;
6825;SDS011;3451;52.476;13.316;2022-08-01T13:36:30;4.07;;;1.10;;
6825;SDS011;3451;52.476;13.316;2022-08-01T13:38:57;4.00;;;1.10;;
6825;SDS011;3451;52.476;13.316;2022-08-01T13:41:44;6.53;;;1.37;;
6825;SDS011;3451;52.476;13.316;2022-08-01T13:44:11;4.23;;;1.10;;
6825;SDS011;3451;52.476;13.316;2022-08-01T13:46:37;0.87;;;0.77;;
6825;SDS011;3451;52.476;13.316;2022-08-01T13:49:14;1.40;;;0.70;;
6825;SDS011;3451;52.476;13.316;2022-08-01T13:51:42;0.90;;;0.70;;
6825;SDS011;3451;52.476;13.316;2022-08-01T13:54:08;3.13;;;1.07;;
6825;SDS011;3451;52.476;13.316;2022-08-01T13:56:40;1.17;;;0.60;;
6825;SDS011;3451;52.476;13.316;2022-08-01T13:59:06;0.90;;;0.60;;
6825;SDS011;3451;52.476;13.316;2022-08-01T14:01:33;0.90;;;0.60;;
6825;SDS011;3451;52.476;13.316;2022-08-01T14:04:01;1.23;;;0.70;;
6825;SDS011;3451;52.476;13.316;2022-08-01T14:06:28;0.90;;;0.50;;
6825;SDS011;3451;52.476;13.316;2022-08-01T14:08:55;2.67;;;1.30;;
6825;SDS011;3451;52.476;13.316;2022-08-01T14:11:22;4.47;;;1.67;;
6825;SDS011;3451;52.476;13.316;2022-08-01T14:13:48;3.03;;;1.07;;
6825;SDS011;3451;52.476;13.316;2022-08-01T14:16:16;5.93;;;3.17;;
6825;SDS011;3451;52.476;13.316;2022-08-01T14:18:43;12.17;;;4.57;;
6825;SDS011;3451;52.476;13.316;2022-08-01T14:21:09;5.10;;;2.40;;
6825;SDS011;3451;52.476;13.316;2022-08-01T14:23:36;4.70;;;1.77;;
6825;SDS011;3451;52.476;13.316;2022-08-01T14:26:03;2.63;;;0.97;;
6825;SDS011;3451;52.476;13.316;2022-08-01T14:28:37;2.70;;;1.00;;
6825;SDS011;3451;52.476;13.316;2022-08-01T14:31:04;2.23;;;0.90;;
6825;SDS011;3451;52.476;13.316;2022-08-01T14:33:32;1.10;;;0.70;;
6825;SDS011;3451;52.476;13.316;2022-08-01T14:35:59;1.50;;;0.87;;
6825;SDS011;3451;52.476;13.316;2022-08-01T14:38:46;1.07;;;0.90;;
6825;SDS011;3451;52.476;13.316;2022-08-01T14:41:13;3.87;;;0.90;;
6825;SDS011;3451;52.476;13.316;2022-08-01T14:43:40;1.47;;;1.00;;
6825;SDS011;3451;52.476;13.316;2022-08-01T14:46:07;3.87;;;3.00;;
6825;SDS011;3451;52.476;13.316;2022-08-01T14:48:35;2.30;;;1.20;;
6825;SDS011;3451;52.476;13.316;2022-08-01T14:51:02;1.77;;;0.90;;
6825;SDS011;3451;52.476;13.316;2022-08-01T14:53:29;1.80;;;0.80;;
6825;SDS011;3451;52.476;13.316;2022-08-01T14:55:59;0.90;;;0.70;;
6825;SDS011;3451;52.476;13.316;2022-08-01T14:58:25;2.77;;;0.70;;
6825;SDS011;3451;52.476;13.316;2022-08-01T15:00:52;1.30;;;1.00;;
6825;SDS011;3451;52.476;13.316;2022-08-01T15:03:24;2.20;;;1.00;;
6825;SDS011;3451;52.476;13.316;2022-08-01T15:05:50;1.67;;;1.20;;
6825;SDS011;3451;52.476;13.316;2022-08-01T15:08:17;2.03;;;1.33;;
6825;SDS011;3451;52.476;13.316;2022-08-01T15:10:43;2.00;;;1.37;;
6825;SDS011;3451;52.476;13.316;2022-08-01T15:13:09;6.00;;;1.40;;
6825;SDS011;3451;52.476;13.316;2022-08-01T15:15:36;2.47;;;1.33;;
6825;SDS011;3451;52.476;13.316;2022-08-01T15:18:02;4.20;;;1.23;;
6825;SDS011;3451;52.476;13.316;2022-08-01T15:20:29;3.37;;;1.87;;
6825;SDS011;3451;52.476;13.316;2022-08-01T15:22:56;4.13;;;3.30;;
6825;SDS011;3451;52.476;13.316;2022-08-01T15:25:22;3.00;;;2.37;;
6825;SDS011;3451;52.476;13.316;2022-08-01T15:27:49;2.47;;;1.73;;
6825;SDS011;3451;52.476;13.316;2022-08-01T15:30:15;7.07;;;5.30;;
6825;SDS011;3451;52.476;13.316;2022-08-01T15:32:48;2.33;;;1.30;;
6825;SDS011;3451;52.476;13.316;2022-08-01T15:35:16;2.33;;;2.10;;
6825;SDS011;3451;52.476;13.316;2022-08-01T15:37:42;10.77;;;1.80;;
6825;SDS011;3451;52.476;13.316;2022-08-01T15:40:09;2.30;;;1.40;;
6825;SDS011;3451;52.476;13.316;2022-08-01T15:42:37;3.20;;;1.23;;
6825;SDS011;3451;52.476;13.316;2022-08-01T15:45:04;2.63;;;1.13;;
6825;SDS011;3451;52.476;13.316;2022-08-01T15:47:32;2.87;;;1.03;;
6825;SDS011;3451;52.476;13.316;2022-08-01T15:49:58;1.40;;;0.87;;
6825;SDS011;3451;52.476;13.316;2022-08-01T15:52:27;1.47;;;0.80;;
6825;SDS011;3451;52.476;13.316;2022-08-01T15:54:56;1.20;;;1.10;;
6825;SDS011;3451;52.476;13.316;2022-08-01T15:57:23;2.87;;;1.63;;
6825;SDS011;3451;52.476;13.316;2022-08-01T15:59:49;1.20;;;1.10;;
6825;SDS011;3451;52.476;13.316;2022-08-01T16:02:16;1.27;;;1.00;;
6825;SDS011;3451;52.476;13.316;2022-08-01T16:04:43;0.97;;;0.87;;
6825;SDS011;3451;52.476;13.316;2022-08-01T16:07:13;1.73;;;1.00;;